Time;durP1;ratioP1;P1;durP2;ratioP2;P2;SDS_P1;SDS_P2;PMS_P1;PMS_P2;Temp;Humidity;BMP_temperature;BMP_pressure;BME280_temperature;BME280_humidity;BME280_pressure;Samples;Min_cycle;Max_cycle;Signal;HPM_P1;HPM_P2
2022/01/16 00:01:05;;;;;;;15.43;7.70;;;5.00;99.90;;;;;;638209;224;26611;-78
2022/01/16 00:05:55;;;;;;;15.40;7.23;;;5.20;99.90;;;;;;643750;222;27258;-78
2022/01/16 00:08:22;;;;;;;15.73;7.13;;;5.20;99.90;;;;;;646758;222;26797;-78
2022/01/16 00:10:50;;;;;;;18.43;7.70;;;5.20;99.90;;;;;;648023;221;26593;-77
2022/01/16 00:13:18;;;;;;;17.13;7.30;;;5.30;99.90;;;;;;639007;224;26532;-78
2022/01/16 00:15:46;;;;;;;15.13;7.93;;;5.30;99.90;;;;;;644751;222;26585;-78
2022/01/16 00:20:45;;;;;;;17.00;8.53;;;5.20;99.90;;;;;;638049;222;26811;-78
2022/01/16 00:23:21;;;;;;;18.33;8.70;;;5.30;99.90;;;;;;644188;221;26577;-78
2022/01/16 00:25:44;;;;;;;24.80;9.17;;;5.30;99.90;;;;;;648221;221;26560;-77
2022/01/16 00:28:09;;;;;;;18.50;8.17;;;5.30;99.90;;;;;;640635;222;26528;-78
2022/01/16 00:30:36;;;;;;;14.30;8.37;;;5.50;99.90;;;;;;649581;221;26514;-78
2022/01/16 00:33:03;;;;;;;21.37;8.83;;;5.60;99.90;;;;;;646047;222;26778;-78
2022/01/16 00:35:30;;;;;;;16.93;8.63;;;5.60;99.90;;;;;;643770;222;26542;-78
2022/01/16 00:37:57;;;;;;;21.00;9.70;;;5.60;99.90;;;;;;640759;222;27124;-78
2022/01/16 00:40:25;;;;;;;20.00;9.80;;;5.60;99.90;;;;;;637198;222;26575;-78
2022/01/16 00:42:55;;;;;;;18.93;9.33;;;5.60;99.90;;;;;;637265;224;26831;-78
2022/01/16 00:45:19;;;;;;;18.27;8.40;;;5.40;99.90;;;;;;638409;224;26785;-78
2022/01/16 00:47:46;;;;;;;14.87;8.37;;;5.50;99.90;;;;;;640632;224;26768;-78
2022/01/16 00:50:13;;;;;;;17.10;8.53;;;5.40;99.90;;;;;;637969;224;26566;-78
2022/01/16 00:52:41;;;;;;;16.03;7.63;;;5.50;99.90;;;;;;645509;222;26583;-78
2022/01/16 00:55:09;;;;;;;16.37;7.60;;;5.40;99.90;;;;;;637212;224;26612;-78
2022/01/16 00:57:36;;;;;;;16.63;7.37;;;5.50;99.90;;;;;;638911;224;26842;-78
2022/01/16 01:00:04;;;;;;;15.90;7.43;;;5.50;99.90;;;;;;638325;222;26547;-78
2022/01/16 01:02:32;;;;;;;14.07;7.23;;;5.20;99.90;;;;;;640106;224;26540;-77
2022/01/16 01:05:00;;;;;;;19.83;7.40;;;5.00;99.90;;;;;;639781;222;26579;-78
2022/01/16 01:07:28;;;;;;;16.40;7.30;;;5.00;99.90;;;;;;644214;217;26570;-78
2022/01/16 01:09:55;;;;;;;17.07;7.57;;;5.00;99.90;;;;;;645095;219;26515;-78
2022/01/16 01:12:29;;;;;;;20.20;8.80;;;5.10;99.90;;;;;;640123;222;26827;-78
2022/01/16 01:15:10;;;;;;;18.23;8.00;;;5.20;99.90;;;;;;647883;222;26553;-78
2022/01/16 01:17:43;;;;;;;19.00;7.73;;;5.30;99.90;;;;;;642975;222;26513;-78
2022/01/16 01:20:05;;;;;;;18.93;7.27;;;5.40;99.90;;;;;;639797;221;26578;-78
2022/01/16 01:22:31;;;;;;;12.97;6.90;;;5.50;99.90;;;;;;638240;222;26583;-78
2022/01/16 01:24:58;;;;;;;18.00;7.50;;;5.40;99.90;;;;;;638522;224;26516;-78
2022/01/16 01:27:31;;;;;;;15.10;7.17;;;5.30;99.90;;;;;;643822;222;26577;-78
2022/01/16 01:30:01;;;;;;;14.60;7.20;;;5.20;99.90;;;;;;643089;222;26572;-78
2022/01/16 01:32:22;;;;;;;18.13;7.43;;;5.10;99.90;;;;;;637611;224;26570;-78
2022/01/16 01:34:49;;;;;;;16.73;7.50;;;4.90;99.90;;;;;;638046;222;26609;-78
2022/01/16 01:37:16;;;;;;;14.43;7.47;;;4.90;99.90;;;;;;640924;223;26845;-78
2022/01/16 01:39:43;;;;;;;16.13;7.47;;;4.90;99.90;;;;;;644639;222;26774;-78
2022/01/16 01:42:12;;;;;;;13.93;7.83;;;5.00;99.90;;;;;;642634;222;26836;-78
2022/01/16 01:52:16;;;;;;;15.13;8.03;;;4.30;99.90;;;;;;647947;221;26938;-78
2022/01/16 01:54:44;;;;;;;16.83;8.60;;;4.30;99.90;;;;;;638802;222;26615;-78
2022/01/16 01:57:12;;;;;;;22.13;8.37;;;4.50;99.90;;;;;;644006;221;26565;-78
2022/01/16 01:59:39;;;;;;;17.47;7.80;;;4.50;99.90;;;;;;642470;222;26552;-78
2022/01/16 02:02:06;;;;;;;18.37;8.27;;;4.70;99.90;;;;;;647413;221;26574;-78
2022/01/16 02:04:34;;;;;;;18.63;8.07;;;4.80;99.90;;;;;;638211;221;26828;-78
2022/01/16 02:07:01;;;;;;;23.53;8.73;;;4.90;99.90;;;;;;638085;224;26558;-78
2022/01/16 02:09:28;;;;;;;20.90;8.70;;;5.10;99.90;;;;;;639042;224;26818;-78
2022/01/16 02:11:56;;;;;;;13.80;7.67;;;5.20;99.90;;;;;;639326;224;26573;-78
2022/01/16 02:14:32;;;;;;;16.10;7.60;;;5.30;99.90;;;;;;637543;224;26545;-78
2022/01/16 02:30:24;;;;;;;17.87;7.97;;;5.50;99.90;;;;;;643273;222;26521;-78
2022/01/16 02:34:47;;;;;;;21.03;8.00;;;5.70;99.90;;;;;;637897;222;26543;-78
2022/01/16 02:37:16;;;;;;;16.70;7.50;;;5.90;99.90;;;;;;638648;224;26816;-78
2022/01/16 02:39:42;;;;;;;19.03;7.60;;;5.70;99.90;;;;;;644345;222;26772;-78
2022/01/16 02:42:09;;;;;;;16.07;7.70;;;5.50;99.90;;;;;;640214;222;26963;-78
2022/01/16 02:45:01;;;;;;;17.03;7.33;;;5.40;99.90;;;;;;648987;221;26590;-78
2022/01/16 02:47:19;;;;;;;16.47;6.97;;;5.50;99.90;;;;;;644308;222;26556;-78
2022/01/16 02:49:48;;;;;;;22.60;7.70;;;5.50;99.90;;;;;;638934;221;26593;-78
2022/01/16 02:52:15;;;;;;;16.87;7.90;;;5.50;99.90;;;;;;639877;224;26580;-78
2022/01/16 02:54:42;;;;;;;23.03;8.07;;;5.50;99.90;;;;;;640151;224;26773;-78
2022/01/16 02:57:10;;;;;;;16.57;7.33;;;5.50;99.90;;;;;;638366;224;26798;-78
2022/01/16 02:59:38;;;;;;;15.10;7.97;;;5.50;99.90;;;;;;638818;219;26562;-78
2022/01/16 03:02:06;;;;;;;18.70;7.23;;;5.50;99.90;;;;;;637698;224;26605;-78
2022/01/16 03:04:33;;;;;;;16.67;7.60;;;5.20;99.90;;;;;;638407;222;26532;-78
2022/01/16 03:07:00;;;;;;;17.10;7.60;;;5.10;99.90;;;;;;647688;218;26789;-78
2022/01/16 03:09:37;;;;;;;20.37;8.27;;;5.10;99.90;;;;;;644319;222;26583;-79
2022/01/16 03:11:54;;;;;;;20.80;8.27;;;4.70;99.90;;;;;;643900;222;27244;-78
2022/01/16 03:14:22;;;;;;;20.07;7.53;;;4.40;99.90;;;;;;649651;221;26543;-78
2022/01/16 03:16:52;;;;;;;21.90;8.17;;;4.30;99.90;;;;;;645543;221;26556;-78
2022/01/16 03:21:54;;;;;;;14.43;7.57;;;4.30;99.90;;;;;;644652;222;26863;-78
2022/01/16 03:24:24;;;;;;;18.57;8.33;;;4.20;99.90;;;;;;639086;222;26580;-82
2022/01/16 03:26:51;;;;;;;17.20;7.27;;;3.80;99.90;;;;;;637039;224;26588;-78
2022/01/16 03:29:19;;;;;;;21.30;6.97;;;3.70;99.90;;;;;;638638;222;26595;-79
2022/01/16 03:31:47;;;;;;;23.30;7.83;;;3.70;99.90;;;;;;640525;223;26633;-79
2022/01/16 03:34:14;;;;;;;17.83;8.90;;;3.60;99.90;;;;;;638625;223;26521;-79
2022/01/16 03:36:42;;;;;;;18.70;7.30;;;3.80;99.90;;;;;;646640;222;26575;-79
2022/01/16 03:39:10;;;;;;;15.93;6.63;;;3.80;99.90;;;;;;639206;224;26918;-79
2022/01/16 03:41:37;;;;;;;23.37;8.70;;;3.80;99.90;;;;;;639398;224;26608;-78
2022/01/16 03:44:04;;;;;;;28.47;7.07;;;3.70;99.90;;;;;;640349;224;26573;-78
2022/01/16 03:46:34;;;;;;;15.87;7.23;;;3.70;99.90;;;;;;638437;224;26535;-78
2022/01/16 03:48:59;;;;;;;20.93;8.70;;;3.80;99.90;;;;;;640058;223;26558;-78
2022/01/16 03:51:26;;;;;;;24.77;7.43;;;3.80;99.90;;;;;;639057;224;26819;-79
2022/01/16 03:53:54;;;;;;;22.73;7.00;;;3.90;99.90;;;;;;645222;222;26597;-78
2022/01/16 03:56:21;;;;;;;15.63;6.87;;;3.80;99.90;;;;;;639438;222;26588;-78
2022/01/16 03:58:49;;;;;;;16.70;7.10;;;3.90;99.90;;;;;;646389;222;26884;-78
2022/01/16 04:01:17;;;;;;;15.50;6.77;;;3.90;99.90;;;;;;639681;222;26592;-78
2022/01/16 04:03:45;;;;;;;15.70;6.87;;;3.80;99.90;;;;;;639443;224;26593;-78
2022/01/16 04:06:13;;;;;;;21.90;6.70;;;3.60;99.90;;;;;;640810;224;26520;-78
2022/01/16 04:08:40;;;;;;;19.23;7.70;;;3.50;99.90;;;;;;637791;224;26608;-78
2022/01/16 04:11:08;;;;;;;21.47;6.93;;;3.50;99.90;;;;;;639528;221;26808;-78
2022/01/16 04:13:35;;;;;;;16.60;6.63;;;3.50;99.90;;;;;;637220;222;26587;-78
2022/01/16 04:16:02;;;;;;;14.57;6.43;;;3.50;99.90;;;;;;644040;222;26838;-78
2022/01/16 04:18:29;;;;;;;16.23;6.63;;;3.40;99.90;;;;;;638622;221;26564;-78
2022/01/16 04:20:57;;;;;;;26.13;7.33;;;3.30;99.90;;;;;;642030;222;26796;-78
2022/01/16 04:23:24;;;;;;;17.80;7.90;;;3.50;99.90;;;;;;648319;221;26558;-79
2022/01/16 04:25:52;;;;;;;15.73;6.30;;;3.40;99.90;;;;;;642190;221;26516;-78
2022/01/16 04:28:24;;;;;;;15.93;5.70;;;3.40;99.90;;;;;;647491;221;26518;-78
2022/01/16 04:30:47;;;;;;;18.40;6.40;;;3.40;99.90;;;;;;648234;221;26874;-78
2022/01/16 04:33:15;;;;;;;16.07;7.17;;;3.40;99.90;;;;;;643023;222;26607;-78
2022/01/16 04:35:42;;;;;;;15.07;6.40;;;3.40;99.90;;;;;;641855;222;26805;-78
2022/01/16 04:38:09;;;;;;;14.07;5.77;;;3.50;99.90;;;;;;637197;222;26577;-78
2022/01/16 04:40:44;;;;;;;14.30;5.80;;;3.50;99.90;;;;;;645817;221;26806;-79
2022/01/16 04:45:41;;;;;;;19.63;6.90;;;3.50;99.90;;;;;;638469;224;26533;-78
2022/01/16 04:48:08;;;;;;;15.60;6.27;;;3.50;99.90;;;;;;645494;222;26571;-78
2022/01/16 04:50:35;;;;;;;14.53;6.47;;;3.40;99.90;;;;;;639893;222;26585;-78
2022/01/16 04:53:03;;;;;;;18.27;6.87;;;3.30;99.90;;;;;;646293;222;26512;-78
2022/01/16 04:55:30;;;;;;;22.83;6.50;;;3.20;99.90;;;;;;644499;222;26792;-78
2022/01/16 04:57:58;;;;;;;18.33;6.70;;;3.30;99.90;;;;;;648097;222;26522;-78
2022/01/16 05:00:25;;;;;;;19.83;6.83;;;3.00;99.90;;;;;;650002;221;26886;-78
2022/01/16 05:02:52;;;;;;;17.00;6.00;;;2.70;99.90;;;;;;639602;222;26593;-78
2022/01/16 05:05:19;;;;;;;17.87;6.43;;;3.00;99.90;;;;;;645123;222;26793;-79
2022/01/16 05:07:47;;;;;;;14.67;6.73;;;2.70;99.90;;;;;;639048;223;26569;-78
2022/01/16 05:10:15;;;;;;;13.97;6.70;;;2.60;99.90;;;;;;640169;224;26614;-78
2022/01/16 05:12:46;;;;;;;16.43;6.43;;;2.70;99.90;;;;;;637715;218;26579;-78
2022/01/16 05:17:43;;;;;;;13.93;7.23;;;2.80;99.90;;;;;;643020;222;26856;-78
2022/01/16 05:20:11;;;;;;;16.10;6.50;;;2.80;99.90;;;;;;647282;222;26795;-78
2022/01/16 05:22:38;;;;;;;16.30;7.43;;;2.80;99.90;;;;;;638293;222;26606;-78
2022/01/16 05:25:07;;;;;;;16.63;7.00;;;2.80;99.90;;;;;;639688;224;26527;-78
2022/01/16 05:27:33;;;;;;;11.57;6.43;;;2.80;99.90;;;;;;643423;221;26840;-78
2022/01/16 05:30:00;;;;;;;14.70;6.40;;;2.60;99.90;;;;;;648256;221;26515;-79
2022/01/16 05:32:27;;;;;;;20.90;6.83;;;2.60;99.90;;;;;;647111;222;27288;-80
2022/01/16 05:34:55;;;;;;;17.53;7.90;;;2.30;99.90;;;;;;638004;224;26597;-79
2022/01/16 05:37:23;;;;;;;20.50;7.67;;;2.40;99.90;;;;;;639315;224;26561;-80
2022/01/16 05:39:51;;;;;;;14.67;6.10;;;2.40;99.90;;;;;;643201;222;26558;-79
2022/01/16 05:42:18;;;;;;;18.03;7.13;;;2.50;99.90;;;;;;642058;218;26578;-79
2022/01/16 05:44:45;;;;;;;15.30;7.40;;;2.60;99.90;;;;;;638740;222;26805;-80
2022/01/16 05:47:13;;;;;;;28.73;8.63;;;2.60;99.90;;;;;;643871;221;26576;-80
2022/01/16 05:49:41;;;;;;;20.90;7.20;;;2.60;99.90;;;;;;642433;222;26954;-79
2022/01/16 05:52:07;;;;;;;16.80;7.03;;;2.60;99.90;;;;;;639867;222;26589;-80
2022/01/16 05:54:35;;;;;;;22.27;7.30;;;2.60;99.90;;;;;;642066;223;26534;-80
2022/01/16 05:57:03;;;;;;;14.23;6.73;;;2.40;99.90;;;;;;643678;222;26554;-79
2022/01/16 05:59:30;;;;;;;18.43;8.60;;;2.40;99.90;;;;;;643619;221;26909;-79
2022/01/16 06:01:57;;;;;;;18.63;7.77;;;2.30;99.90;;;;;;638020;222;26591;-80
2022/01/16 06:04:24;;;;;;;17.03;7.57;;;2.20;99.90;;;;;;640757;221;26731;-80
2022/01/16 06:06:52;;;;;;;21.27;8.40;;;2.10;99.90;;;;;;646023;222;26504;-79
2022/01/16 06:09:20;;;;;;;26.83;8.97;;;2.00;99.90;;;;;;637868;224;26527;-79
2022/01/16 06:11:48;;;;;;;15.23;7.17;;;2.10;99.90;;;;;;643634;222;26605;-79
2022/01/16 06:14:15;;;;;;;17.47;7.43;;;2.10;99.90;;;;;;639949;222;26776;-79
2022/01/16 06:16:42;;;;;;;19.27;8.47;;;2.20;99.90;;;;;;638064;224;26554;-78
2022/01/16 06:19:10;;;;;;;16.73;8.27;;;2.30;99.90;;;;;;639928;224;26805;-79
2022/01/16 06:21:37;;;;;;;19.07;8.80;;;2.20;99.90;;;;;;639324;224;26577;-79
2022/01/16 06:24:04;;;;;;;17.73;8.10;;;2.10;99.90;;;;;;640960;223;26841;-79
2022/01/16 06:26:31;;;;;;;19.27;9.40;;;2.20;99.90;;;;;;641303;222;26556;-79
2022/01/16 06:28:59;;;;;;;21.03;9.40;;;2.20;99.90;;;;;;645053;222;27269;-79
2022/01/16 06:31:26;;;;;;;23.70;9.97;;;1.90;99.90;;;;;;637209;224;26606;-80
2022/01/16 06:33:53;;;;;;;23.47;9.90;;;1.90;99.90;;;;;;637206;224;26846;-79
2022/01/16 06:36:20;;;;;;;25.00;10.50;;;1.80;99.90;;;;;;637235;224;26552;-79
2022/01/16 06:38:48;;;;;;;24.43;11.37;;;1.70;99.90;;;;;;637148;222;26561;-79
2022/01/16 06:41:15;;;;;;;22.20;11.73;;;1.50;99.90;;;;;;637105;222;26618;-79
2022/01/16 06:43:43;;;;;;;25.80;12.30;;;1.50;99.90;;;;;;639141;224;26586;-79
2022/01/16 06:46:11;;;;;;;25.53;12.90;;;1.50;99.90;;;;;;647692;221;26522;-79
2022/01/16 06:48:40;;;;;;;24.20;11.87;;;1.50;99.90;;;;;;638055;221;26574;-79
2022/01/16 06:51:08;;;;;;;25.23;11.70;;;1.50;99.90;;;;;;638243;224;26581;-78
2022/01/16 06:53:36;;;;;;;20.00;11.17;;;1.50;99.90;;;;;;638967;224;26577;-80
2022/01/16 06:56:04;;;;;;;34.23;12.50;;;1.60;99.90;;;;;;637238;224;26600;-79
2022/01/16 06:58:31;;;;;;;24.07;11.73;;;1.50;99.90;;;;;;640696;221;26791;-79
2022/01/16 07:00:58;;;;;;;22.30;11.80;;;1.60;99.90;;;;;;647069;221;26539;-80
2022/01/16 07:03:25;;;;;;;25.70;11.70;;;1.60;99.90;;;;;;638656;224;27434;-79
2022/01/16 07:05:54;;;;;;;21.23;12.37;;;1.50;99.90;;;;;;642236;222;26553;-80
2022/01/16 07:08:23;;;;;;;28.00;11.87;;;1.70;99.90;;;;;;638984;224;26526;-79
2022/01/16 07:10:49;;;;;;;27.17;12.57;;;1.90;99.90;;;;;;639874;219;26584;-80
2022/01/16 07:13:17;;;;;;;20.37;12.27;;;2.00;99.90;;;;;;649027;217;26603;-79
2022/01/16 07:15:45;;;;;;;21.97;13.60;;;2.10;99.90;;;;;;643425;221;26507;-79
2022/01/16 07:18:13;;;;;;;23.30;12.60;;;2.10;99.90;;;;;;637815;222;26511;-80
2022/01/16 07:20:40;;;;;;;23.70;12.73;;;2.10;99.90;;;;;;640780;222;26540;-79
2022/01/16 07:23:07;;;;;;;23.33;12.37;;;2.10;99.90;;;;;;638849;224;26519;-79
2022/01/16 07:25:35;;;;;;;22.93;12.73;;;2.00;99.90;;;;;;639394;224;26815;-79
2022/01/16 07:28:02;;;;;;;23.20;12.47;;;1.70;99.90;;;;;;639996;224;26606;-79
2022/01/16 07:30:29;;;;;;;22.87;12.20;;;1.70;99.90;;;;;;640921;224;26809;-79
2022/01/16 07:32:56;;;;;;;21.13;12.80;;;1.80;99.90;;;;;;642551;222;26783;-79
2022/01/16 07:35:23;;;;;;;22.90;13.57;;;1.90;99.90;;;;;;643465;221;27498;-79
2022/01/16 07:37:52;;;;;;;24.33;12.80;;;1.90;99.90;;;;;;639638;224;26622;-79
2022/01/16 07:40:21;;;;;;;22.13;12.53;;;2.10;99.90;;;;;;638103;219;26803;-79
2022/01/16 07:42:46;;;;;;;17.63;11.97;;;2.10;99.90;;;;;;638743;219;26896;-80
2022/01/16 07:45:13;;;;;;;22.27;12.77;;;2.10;99.90;;;;;;638183;224;26578;-80
2022/01/16 07:47:41;;;;;;;21.00;13.00;;;2.20;99.90;;;;;;639144;222;26608;-79
2022/01/16 07:50:09;;;;;;;21.27;13.03;;;2.20;99.90;;;;;;641829;221;26589;-79
2022/01/16 07:52:36;;;;;;;25.67;13.30;;;2.00;99.90;;;;;;644437;222;26572;-79
2022/01/16 07:55:03;;;;;;;23.47;13.73;;;2.10;99.90;;;;;;641640;222;26597;-79
2022/01/16 07:57:31;;;;;;;21.63;13.73;;;2.10;99.90;;;;;;643768;222;26589;-79
2022/01/16 07:59:58;;;;;;;22.70;15.17;;;1.70;99.90;;;;;;638584;222;26598;-79
2022/01/16 08:02:25;;;;;;;24.27;14.67;;;2.00;99.90;;;;;;637841;224;26581;-80
2022/01/16 08:04:52;;;;;;;22.17;14.97;;;2.00;99.90;;;;;;639555;224;26798;-80
2022/01/16 08:07:19;;;;;;;29.80;16.00;;;2.00;99.90;;;;;;637790;222;26547;-79
2022/01/16 08:09:47;;;;;;;29.57;16.00;;;1.80;99.90;;;;;;643415;221;26866;-78
2022/01/16 08:12:14;;;;;;;26.23;15.53;;;1.90;99.90;;;;;;640705;221;26566;-80
2022/01/16 08:14:41;;;;;;;26.33;16.33;;;1.90;99.90;;;;;;638811;224;27229;-79
2022/01/16 08:17:08;;;;;;;26.13;15.63;;;1.70;99.90;;;;;;641961;219;26567;-80
2022/01/16 08:19:35;;;;;;;27.43;16.30;;;1.80;99.90;;;;;;640871;222;26750;-79
2022/01/16 08:22:03;;;;;;;25.03;16.50;;;1.80;99.90;;;;;;638204;220;26612;-80
2022/01/16 08:24:30;;;;;;;28.27;16.33;;;1.90;99.90;;;;;;638201;223;26773;-80
2022/01/16 08:26:58;;;;;;;24.77;15.20;;;2.10;99.90;;;;;;639619;222;26564;-81
2022/01/16 08:29:25;;;;;;;25.43;16.10;;;2.10;99.90;;;;;;638674;224;26593;-80
2022/01/16 08:31:53;;;;;;;24.80;16.33;;;2.30;99.90;;;;;;647336;222;26530;-78
2022/01/16 08:34:22;;;;;;;26.37;18.20;;;2.30;99.90;;;;;;641882;222;26586;-78
2022/01/16 08:36:50;;;;;;;23.80;16.60;;;2.20;99.90;;;;;;638163;224;26588;-78
2022/01/16 08:39:18;;;;;;;32.80;18.60;;;2.30;99.90;;;;;;639041;222;26587;-80
2022/01/16 08:41:46;;;;;;;26.97;17.30;;;2.40;99.90;;;;;;647518;222;26598;-81
2022/01/16 08:44:13;;;;;;;25.40;17.03;;;2.40;99.90;;;;;;641406;222;26559;-80
2022/01/16 08:46:40;;;;;;;27.20;17.50;;;2.40;99.90;;;;;;638916;221;26577;-80
2022/01/16 08:49:08;;;;;;;25.53;16.57;;;2.50;99.90;;;;;;640896;222;26571;-80
2022/01/16 08:51:35;;;;;;;25.30;16.50;;;2.50;99.90;;;;;;638668;221;26587;-80
2022/01/16 08:54:03;;;;;;;27.90;16.13;;;2.40;99.90;;;;;;639770;219;26585;-84
2022/01/16 08:56:30;;;;;;;28.07;16.43;;;2.80;99.90;;;;;;643261;221;26540;-84
2022/01/16 08:58:58;;;;;;;24.60;16.40;;;2.70;99.90;;;;;;641547;222;26570;-81
2022/01/16 09:01:26;;;;;;;25.03;15.60;;;2.80;99.90;;;;;;643897;221;26592;-80
2022/01/16 09:03:54;;;;;;;26.20;16.00;;;2.90;99.90;;;;;;640396;222;26578;-81
2022/01/16 09:06:21;;;;;;;25.60;16.73;;;2.90;99.90;;;;;;641824;222;26562;-84
2022/01/16 09:08:49;;;;;;;23.80;15.67;;;3.10;99.90;;;;;;640934;221;27285;-79
2022/01/16 09:11:16;;;;;;;25.67;15.77;;;3.30;99.90;;;;;;644026;221;26588;-76
2022/01/16 09:13:43;;;;;;;28.30;16.77;;;3.30;99.90;;;;;;639454;224;26883;-84
2022/01/16 09:16:11;;;;;;;22.90;16.20;;;3.20;99.90;;;;;;637285;225;26568;-78
2022/01/16 09:18:39;;;;;;;24.73;15.37;;;3.30;99.90;;;;;;639698;222;26605;-77
2022/01/16 09:21:07;;;;;;;21.30;14.30;;;3.60;99.90;;;;;;647234;222;26600;-78
2022/01/16 09:23:37;;;;;;;22.57;14.77;;;3.50;99.90;;;;;;647154;222;26585;-78
2022/01/16 09:26:02;;;;;;;23.03;15.93;;;3.50;99.90;;;;;;642192;222;26802;-78
2022/01/16 09:28:29;;;;;;;20.00;13.97;;;3.40;99.90;;;;;;638365;223;26542;-78
2022/01/16 09:30:57;;;;;;;24.07;14.77;;;3.30;99.90;;;;;;638596;223;26856;-77
2022/01/16 09:33:24;;;;;;;24.27;15.00;;;3.30;99.90;;;;;;638851;224;26585;-79
2022/01/16 09:35:51;;;;;;;22.63;15.27;;;3.30;99.90;;;;;;641610;224;27241;-77
2022/01/16 09:38:18;;;;;;;24.47;15.50;;;3.50;99.90;;;;;;641922;221;26542;-76
2022/01/16 09:40:46;;;;;;;25.87;16.17;;;3.50;99.90;;;;;;645975;221;26782;-78
2022/01/16 09:43:14;;;;;;;24.50;16.93;;;3.80;99.90;;;;;;640472;222;26837;-77
2022/01/16 09:45:41;;;;;;;24.50;16.80;;;3.90;99.90;;;;;;639314;223;26585;-77
2022/01/16 09:48:08;;;;;;;23.03;15.30;;;3.90;99.90;;;;;;640057;224;26567;-76
2022/01/16 09:50:36;;;;;;;22.33;16.50;;;4.10;99.90;;;;;;639514;221;26847;-77
2022/01/16 09:53:03;;;;;;;20.30;16.47;;;3.90;99.90;;;;;;640089;224;26587;-77
2022/01/16 09:55:30;;;;;;;24.23;16.30;;;4.10;99.90;;;;;;643959;221;26844;-77
2022/01/16 09:57:59;;;;;;;24.97;16.57;;;4.10;99.90;;;;;;647634;221;26560;-77
2022/01/16 10:00:26;;;;;;;21.90;15.07;;;4.60;99.90;;;;;;639198;222;26584;-78
2022/01/16 10:02:54;;;;;;;21.93;15.87;;;4.50;99.90;;;;;;644730;222;26578;-77
2022/01/16 10:05:23;;;;;;;22.93;14.97;;;4.20;99.90;;;;;;643417;222;26552;-77
2022/01/16 10:07:51;;;;;;;22.93;15.50;;;4.20;99.90;;;;;;642831;222;26590;-77
2022/01/16 10:10:19;;;;;;;26.93;16.50;;;4.30;99.90;;;;;;637434;222;26602;-77
2022/01/16 10:12:52;;;;;;;21.47;15.23;;;4.70;99.90;;;;;;638642;224;26571;-78
2022/01/16 10:15:16;;;;;;;24.13;15.37;;;4.80;99.90;;;;;;639621;224;26557;-77
2022/01/16 10:17:43;;;;;;;22.50;15.77;;;4.80;99.90;;;;;;641393;222;26567;-77
2022/01/16 10:20:10;;;;;;;24.57;16.17;;;4.60;99.90;;;;;;639085;224;26581;-78
2022/01/16 10:22:42;;;;;;;22.73;16.63;;;4.70;99.90;;;;;;637912;224;27286;-77
2022/01/16 10:25:09;;;;;;;22.03;15.73;;;5.00;99.90;;;;;;638232;224;26576;-77
2022/01/16 10:27:37;;;;;;;21.57;16.13;;;4.60;99.90;;;;;;639619;221;26549;-77
2022/01/16 10:30:07;;;;;;;22.90;15.87;;;3.80;99.90;;;;;;643731;221;26575;-77
2022/01/16 10:32:32;;;;;;;22.43;17.37;;;3.80;99.90;;;;;;641459;222;26595;-77
2022/01/16 10:35:20;;;;;;;25.70;18.07;;;3.30;99.90;;;;;;639195;224;26559;-77
2022/01/16 10:37:47;;;;;;;27.60;17.97;;;3.10;99.90;;;;;;642533;222;26798;-78
2022/01/16 10:40:14;;;;;;;25.97;18.73;;;2.80;99.90;;;;;;645792;219;26821;-77
2022/01/16 10:42:42;;;;;;;26.03;18.73;;;2.50;99.90;;;;;;639073;221;26560;-77
2022/01/16 10:45:10;;;;;;;26.57;18.47;;;2.40;99.90;;;;;;644995;221;26577;-77
2022/01/16 10:47:39;;;;;;;28.03;19.10;;;2.40;99.90;;;;;;644443;221;26585;-76
2022/01/16 10:50:11;;;;;;;26.33;18.40;;;2.50;99.90;;;;;;640953;221;26526;-76
2022/01/16 10:52:55;;;;;;;30.13;18.83;;;2.50;99.90;;;;;;638141;223;26805;-76
2022/01/16 10:55:23;;;;;;;31.83;21.40;;;2.70;99.90;;;;;;640561;221;26521;-77
2022/01/16 10:57:50;;;;;;;31.27;20.47;;;2.50;99.90;;;;;;638072;224;26839;-77
2022/01/16 11:00:18;;;;;;;32.60;20.83;;;2.70;99.90;;;;;;639883;222;26613;-76
2022/01/16 11:02:45;;;;;;;26.27;17.80;;;2.70;99.90;;;;;;645766;217;26577;-77
2022/01/16 11:05:14;;;;;;;34.17;21.20;;;2.90;99.90;;;;;;639339;224;26761;-77
2022/01/16 11:07:42;;;;;;;28.97;20.03;;;2.90;99.90;;;;;;639677;224;26579;-76
2022/01/16 11:10:26;;;;;;;30.57;19.77;;;3.00;99.90;;;;;;638007;223;27365;-77
2022/01/16 11:12:54;;;;;;;28.07;18.83;;;3.10;99.90;;;;;;639877;221;26583;-76
2022/01/16 11:15:22;;;;;;;29.73;20.40;;;3.10;99.90;;;;;;643695;221;26577;-77
2022/01/16 11:17:49;;;;;;;34.93;21.57;;;3.20;99.90;;;;;;637190;225;26780;-77
2022/01/16 11:20:18;;;;;;;33.20;21.17;;;3.10;99.90;;;;;;639980;224;26875;-76
2022/01/16 11:23:04;;;;;;;28.20;19.80;;;3.30;99.90;;;;;;637060;225;26609;-76
2022/01/16 11:25:34;;;;;;;30.57;20.30;;;3.40;99.90;;;;;;636907;225;26800;-77
2022/01/16 11:28:02;;;;;;;33.20;20.67;;;3.50;99.90;;;;;;639284;222;26831;-77
2022/01/16 11:30:30;;;;;;;34.43;21.37;;;3.70;99.90;;;;;;639237;221;26611;-76
2022/01/16 11:32:57;;;;;;;32.10;21.13;;;3.60;99.90;;;;;;649188;221;26757;-76
2022/01/16 11:35:24;;;;;;;33.00;20.70;;;3.40;99.90;;;;;;640854;222;26608;-76
2022/01/16 11:37:51;;;;;;;29.77;19.87;;;3.50;99.90;;;;;;638132;222;26932;-76
2022/01/16 11:40:18;;;;;;;32.47;20.57;;;3.50;99.90;;;;;;640783;222;26573;-76
2022/01/16 11:43:01;;;;;;;31.37;21.00;;;3.10;99.90;;;;;;645438;222;27336;-76
2022/01/16 11:45:28;;;;;;;31.30;20.80;;;3.00;99.90;;;;;;635812;224;26608;-76
2022/01/16 11:47:56;;;;;;;30.87;20.77;;;2.90;99.90;;;;;;637172;225;26498;-76
2022/01/16 11:50:24;;;;;;;28.70;20.37;;;3.00;99.90;;;;;;640189;221;26782;-76
2022/01/16 11:52:51;;;;;;;30.53;19.37;;;3.10;99.90;;;;;;638790;222;26559;-80
2022/01/16 11:55:19;;;;;;;30.63;19.90;;;3.30;99.90;;;;;;642008;224;26822;-84
2022/01/16 11:57:55;;;;;;;32.63;21.57;;;3.70;99.90;;;;;;639428;224;26574;-80
2022/01/16 12:00:23;;;;;;;30.67;20.23;;;3.70;99.90;;;;;;646540;222;26597;-80
2022/01/16 12:02:53;;;;;;;32.80;20.70;;;3.60;99.90;;;;;;641022;222;26479;-80
2022/01/16 12:05:22;;;;;;;30.43;20.13;;;3.50;99.90;;;;;;643024;222;26519;-80
2022/01/16 12:07:50;;;;;;;26.20;18.73;;;3.50;99.90;;;;;;637781;222;26515;-80
2022/01/16 12:10:40;;;;;;;26.93;20.03;;;3.40;99.90;;;;;;646121;222;26579;-84
2022/01/16 12:13:12;;;;;;;32.40;20.83;;;3.40;99.90;;;;;;637531;222;26800;-82
2022/01/16 12:15:34;;;;;;;32.00;20.10;;;3.20;99.90;;;;;;640695;219;26566;-83
2022/01/16 12:18:01;;;;;;;31.00;20.37;;;3.40;99.90;;;;;;647645;222;26786;-83
2022/01/16 12:20:30;;;;;;;29.70;19.70;;;3.40;99.90;;;;;;648431;221;26585;-83
2022/01/16 12:23:09;;;;;;;31.53;19.90;;;3.50;99.90;;;;;;638697;222;26904;-83
2022/01/16 12:25:36;;;;;;;31.17;20.93;;;3.60;99.90;;;;;;637553;225;26842;-86
2022/01/16 12:28:23;;;;;;;30.30;20.40;;;4.00;99.90;;;;;;637441;221;26559;-86
2022/01/16 12:30:56;;;;;;;29.23;19.53;;;4.30;99.90;;;;;;647413;222;26599;-86
2022/01/16 12:33:26;;;;;;;29.17;20.80;;;4.30;99.90;;;;;;642180;222;26568;-84
2022/01/16 12:36:05;;;;;;;29.43;18.57;;;4.30;99.90;;;;;;639660;224;26568;-83
2022/01/16 12:38:27;;;;;;;29.20;19.57;;;4.40;99.90;;;;;;637402;224;26812;-82
2022/01/16 12:41:03;;;;;;;29.37;18.23;;;4.20;99.90;;;;;;639437;221;26599;-82
2022/01/16 12:43:39;;;;;;;31.70;19.40;;;4.00;99.90;;;;;;643095;222;26569;-82
2022/01/16 12:46:00;;;;;;;24.97;17.80;;;4.00;99.90;;;;;;641595;222;26584;-86
2022/01/16 12:48:27;;;;;;;30.77;18.40;;;4.30;99.90;;;;;;637305;222;26573;-83
2022/01/16 12:51:00;;;;;;;26.53;19.00;;;4.50;99.90;;;;;;637262;224;26595;-82
2022/01/16 12:53:33;;;;;;;27.13;18.77;;;4.50;99.90;;;;;;639142;224;27024;-84
2022/01/16 12:56:21;;;;;;;30.07;19.23;;;4.50;99.90;;;;;;637678;222;26584;-83
2022/01/16 12:58:47;;;;;;;31.43;18.73;;;4.30;99.90;;;;;;643149;222;26815;-83
2022/01/16 13:01:14;;;;;;;29.10;19.17;;;4.40;99.90;;;;;;642018;221;26612;-84
2022/01/16 13:03:43;;;;;;;32.57;23.30;;;4.40;99.90;;;;;;650726;220;26788;-83
2022/01/16 13:06:15;;;;;;;191.57;94.20;;;4.20;99.90;;;;;;640485;220;26799;-82
2022/01/16 13:08:59;;;;;;;31.27;19.80;;;4.30;99.90;;;;;;640733;223;26815;-82
2022/01/16 13:11:26;;;;;;;28.93;19.47;;;4.20;99.90;;;;;;639990;221;26599;-83
2022/01/16 13:13:53;;;;;;;63.53;35.00;;;4.40;99.90;;;;;;638926;224;26851;-82
2022/01/16 13:16:21;;;;;;;36.73;22.20;;;4.60;99.90;;;;;;640699;224;26513;-83
2022/01/16 13:18:57;;;;;;;32.93;20.40;;;4.60;99.90;;;;;;638943;224;26507;-83
2022/01/16 13:21:32;;;;;;;29.90;20.37;;;4.20;99.90;;;;;;639229;224;26809;-83